• Join FlightAware (Why Join?)
  • Login
  • US Flag 
01:46AM EDT


 

Airport Tracker/Info


-or-


 

Live Flight TrackerFlight Track Log ✈ AJX916 ✈ 26-Oct-2013 ✈ VTBS / BKK - RJAA / NRT

Flight Track Log - Related Links

Times and Time Zones

All times are in EDT time to prevent confusion due to time zone crossing. See the AJX916 flight status page for this flight to view local times or setup timezone preferences in your user account.

Time Position Orientation Groundspeed Altitude Reporting Facility
EDT Latitude Longitude Course Direction KTS MPH feet Rate Location/Type
01:34PM 14.0122 101.1682 51° Northeast  Level Estimated
01:35PM 14.0948 101.2736 51° Northeast  Level Estimated
01:36PM 14.1774 101.3791 51° Northeast  Level Estimated
01:37PM 14.2600 101.4846 51° Northeast  Level Estimated
01:38PM 14.3425 101.5903 51° Northeast  Level Estimated
01:39PM 14.4249 101.6960 51° Northeast  Level Estimated
01:40PM 14.5074 101.8018 51° Northeast  Level Estimated
01:41PM 14.5897 101.9077 51° Northeast  Level Estimated
01:42PM 14.6721 102.0136 51° Northeast  Level Estimated
01:43PM 14.7543 102.1197 51° Northeast  Level Estimated
01:44PM 14.8365 102.2258 51° Northeast  Level Estimated
01:45PM 14.9187 102.3320 51° Northeast  Level Estimated
01:46PM 15.0009 102.4383 51° Northeast  Level Estimated
01:47PM 15.0829 102.5446 51° Northeast  Level Estimated
01:48PM 15.1650 102.6511 51° Northeast  Level Estimated
01:49PM 15.2470 102.7576 51° Northeast  Level Estimated
01:50PM 15.3289 102.8642 51° Northeast  Level Estimated
01:51PM 15.4108 102.9709 51° Northeast  Level Estimated
01:52PM 15.4926 103.0777 51° Northeast  Level Estimated
01:53PM 15.5744 103.1846 52° Northeast  Level Estimated
01:54PM 15.6561 103.2915 52° Northeast  Level Estimated
01:55PM 15.7378 103.3985 52° Northeast  Level Estimated
01:56PM 15.8194 103.5057 52° Northeast  Level Estimated
01:57PM 15.9010 103.6129 52° Northeast  Level Estimated
01:58PM 15.9825 103.7202 52° Northeast  Level Estimated
01:59PM 16.0639 103.8275 52° Northeast  Level Estimated
02:00PM 16.1453 103.9350 52° Northeast  Level Estimated
02:01PM 16.2267 104.0426 52° Northeast  Level Estimated
02:02PM 16.3080 104.1502 52° Northeast  Level Estimated
02:03PM 16.3892 104.2579 52° Northeast  Level Estimated
02:04PM 16.4704 104.3658 52° Northeast  Level Estimated
02:05PM 16.5516 104.4737 52° Northeast  Level Estimated
02:06PM 16.6327 104.5817 52° Northeast  Level Estimated
02:07PM 16.7137 104.6898 52° Northeast  Level Estimated
02:08PM 16.7946 104.7980 52° Northeast  Level Estimated
02:09PM 16.8755 104.9062 52° Northeast  Level Estimated
02:10PM 16.9564 105.0146 52° Northeast  Level Estimated
02:11PM 17.0372 105.1231 52° Northeast  Level Estimated
02:12PM 17.1179 105.2316 52° Northeast  Level Estimated
02:13PM 17.1986 105.3403 52° Northeast  Level Estimated
02:14PM 17.2792 105.4490 52° Northeast  Level Estimated
02:15PM 17.3598 105.5579 52° Northeast  Level Estimated
02:16PM 17.4403 105.6668 52° Northeast  Level Estimated
02:17PM 17.5208 105.7758 52° Northeast  Level Estimated
02:18PM 17.6012 105.8850 52° Northeast  Level Estimated
02:19PM 17.6815 105.9942 52° Northeast  Level Estimated
02:20PM 17.7617 106.1035 52° Northeast  Level Estimated
02:21PM 17.8420 106.2130 52° Northeast  Level Estimated
02:22PM 17.9221 106.3225 52° Northeast  Level Estimated
02:23PM 18.0022 106.4321 52° Northeast  Level Estimated
02:24PM 18.0822 106.5418 52° Northeast  Level Estimated
02:25PM 18.1622 106.6516 53° Northeast  Level Estimated
02:26PM 18.2421 106.7616 53° Northeast  Level Estimated
02:27PM 18.3219 106.8716 53° Northeast  Level Estimated
02:28PM 18.4017 106.9817 53° Northeast  Level Estimated
02:29PM 18.4814 107.0919 53° Northeast  Level Estimated
02:30PM 18.5610 107.2023 53° Northeast  Level Estimated
02:31PM 18.6406 107.3127 53° Northeast  Level Estimated
02:32PM 18.7201 107.4232 53° Northeast  Level Estimated
02:33PM 18.7996 107.5339 53° Northeast  Level Estimated
02:34PM 18.8790 107.6446 53° Northeast  Level Estimated
02:35PM 18.9583 107.7555 53° Northeast  Level Estimated
02:36PM 19.0375 107.8664 53° Northeast  Level Estimated
02:37PM 19.1167 107.9775 53° Northeast  Level Estimated
02:38PM 19.1958 108.0887 53° Northeast  Level Estimated
02:39PM 19.2749 108.2000 53° Northeast  Level Estimated
02:40PM 19.3539 108.3113 53° Northeast  Level Estimated
02:41PM 19.4328 108.4228 53° Northeast  Level Estimated
02:42PM 19.5117 108.5344 53° Northeast  Level Estimated
02:43PM 19.5904 108.6461 53° Northeast  Level Estimated
02:44PM 19.6691 108.7580 53° Northeast  Level Estimated
02:45PM 19.7478 108.8699 53° Northeast  Level Estimated
02:46PM 19.8263 108.9819 53° Northeast  Level Estimated
02:47PM 19.9049 109.0941 53° Northeast  Level Estimated
02:48PM 19.9833 109.2063 53° Northeast  Level Estimated
02:49PM 20.0616 109.3187 53° Northeast  Level Estimated
02:50PM 20.1399 109.4312 53° Northeast  Level Estimated
02:51PM 20.2181 109.5438 53° Northeast  Level Estimated
02:52PM 20.2963 109.6565 54° Northeast  Level Estimated
02:53PM 20.3744 109.7693 54° Northeast  Level Estimated
02:54PM 20.4524 109.8823 54° Northeast  Level Estimated
02:55PM 20.5303 109.9953 54° Northeast  Level Estimated
02:56PM 20.6082 110.1085 54° Northeast  Level Estimated
02:57PM 20.6859 110.2218 54° Northeast  Level Estimated
02:58PM 20.7637 110.3352 54° Northeast  Level Estimated
02:59PM 20.8413 110.4487 54° Northeast  Level Estimated
03:00PM 20.9189 110.5623 54° Northeast  Level Estimated
03:01PM 20.9963 110.6761 54° Northeast  Level Estimated
03:02PM 21.0738 110.7899 54° Northeast  Level Estimated
03:03PM 21.1511 110.9039 54° Northeast  Level Estimated
03:04PM 21.2283 111.0180 54° Northeast  Level Estimated
03:05PM 21.3055 111.1323 54° Northeast  Level Estimated
03:06PM 21.3826 111.2466 54° Northeast  Level Estimated
03:07PM 21.4597 111.3611 54° Northeast  Level Estimated
03:08PM 21.5366 111.4757 54° Northeast  Level Estimated
03:09PM 21.6135 111.5904 54° Northeast  Level Estimated
03:10PM 21.6903 111.7052 54° Northeast  Level Estimated
03:11PM 21.7670 111.8202 54° Northeast  Level Estimated
03:12PM 21.8436 111.9352 54° Northeast  Level Estimated
03:13PM 21.9202 112.0504 54° Northeast  Level Estimated
03:14PM 21.9966 112.1658 54° Northeast  Level Estimated
03:15PM 22.0730 112.2812 54° Northeast  Level Estimated
03:16PM 22.1493 112.3968 55° Northeast  Level Estimated
03:17PM 22.2256 112.5125 55° Northeast  Level Estimated
03:18PM 22.3017 112.6283 55° Northeast  Level Estimated
03:19PM 22.3778 112.7442 55° Northeast  Level Estimated
03:20PM 22.4538 112.8603 55° Northeast  Level Estimated
03:21PM 22.5296 112.9765 55° Northeast  Level Estimated
03:22PM 22.6055 113.0929 55° Northeast  Level Estimated
03:23PM 22.6812 113.2093 55° Northeast  Level Estimated
03:24PM 22.7568 113.3259 55° Northeast  Level Estimated
03:25PM 22.8324 113.4426 55° Northeast  Level Estimated
03:26PM 22.9079 113.5595 55° Northeast  Level Estimated
03:27PM 22.9833 113.6765 55° Northeast  Level Estimated
03:28PM 23.0586 113.7936 55° Northeast  Level Estimated
03:29PM 23.1338 113.9108 55° Northeast  Level Estimated
03:30PM 23.2089 114.0282 55° Northeast  Level Estimated
03:31PM 23.2840 114.1457 55° Northeast  Level Estimated
03:32PM 23.3589 114.2633 55° Northeast  Level Estimated
03:33PM 23.4338 114.3811 55° Northeast  Level Estimated
03:34PM 23.5086 114.4990 55° Northeast  Level Estimated
03:35PM 23.5833 114.6170 55° Northeast  Level Estimated
03:36PM 23.6579 114.7352 55° Northeast  Level Estimated
03:37PM 23.7324 114.8535 55° Northeast  Level Estimated
03:38PM 23.8068 114.9719 56° Northeast  Level Estimated
03:39PM 23.8811 115.0905 56° Northeast  Level Estimated
03:40PM 23.9554 115.2092 56° Northeast  Level Estimated
03:41PM 24.0295 115.3280 56° Northeast  Level Estimated
03:42PM 24.1036 115.4470 56° Northeast  Level Estimated
03:43PM 24.1776 115.5661 56° Northeast  Level Estimated
03:44PM 24.2514 115.6854 56° Northeast  Level Estimated
03:45PM 24.3252 115.8048 56° Northeast  Level Estimated
03:46PM 24.3989 115.9243 56° Northeast  Level Estimated
03:47PM 24.4725 116.0440 56° Northeast  Level Estimated
03:48PM 24.5460 116.1638 56° Northeast  Level Estimated
03:49PM 24.6194 116.2838 56° Northeast  Level Estimated
03:50PM 24.6927 116.4039 56° Northeast  Level Estimated
03:51PM 24.7659 116.5241 56° Northeast  Level Estimated
03:52PM 24.8390 116.6445 56° Northeast  Level Estimated
03:53PM 24.9121 116.7651 56° Northeast  Level Estimated
03:54PM 24.9850 116.8857 56° Northeast  Level Estimated
03:55PM 25.0578 117.0065 56° Northeast  Level Estimated
03:56PM 25.1305 117.1275 56° Northeast  Level Estimated
03:57PM 25.2032 117.2486 56° Northeast  Level Estimated
03:58PM 25.2757 117.3698 56° Northeast  Level Estimated
03:59PM 25.3481 117.4912 57° Northeast  Level Estimated
04:00PM 25.4205 117.6127 57° Northeast  Level Estimated
04:01PM 25.4927 117.7344 57° Northeast  Level Estimated
04:02PM 25.5648 117.8562 57° Northeast  Level Estimated
04:03PM 25.6369 117.9782 57° Northeast  Level Estimated
04:04PM 25.7088 118.1003 57° Northeast  Level Estimated
04:05PM 25.7806 118.2226 57° Northeast  Level Estimated
04:06PM 25.8523 118.3450 57° Northeast  Level Estimated
04:07PM 25.9240 118.4676 57° Northeast  Level Estimated
04:08PM 25.9955 118.5903 57° Northeast  Level Estimated
04:09PM 26.0669 118.7131 57° Northeast  Level Estimated
04:10PM 26.1382 118.8362 57° Northeast  Level Estimated
04:11PM 26.2094 118.9593 57° Northeast  Level Estimated
04:12PM 26.2805 119.0826 57° Northeast  Level Estimated
04:13PM 26.3515 119.2061 57° Northeast  Level Estimated
04:14PM 26.4224 119.3297 57° Northeast  Level Estimated
04:15PM 26.4932 119.4535 57° Northeast  Level Estimated
04:16PM 26.5639 119.5774 57° Northeast  Level Estimated
04:17PM 26.6345 119.7014 58° Northeast  Level Estimated
04:18PM 26.7049 119.8257 58° Northeast  Level Estimated
04:19PM 26.7753 119.9501 58° Northeast  Level Estimated
04:20PM 26.8455 120.0746 58° Northeast  Level Estimated
04:21PM 26.9156 120.1993 58° Northeast  Level Estimated
04:22PM 26.9857 120.3241 58° Northeast  Level Estimated
04:23PM 27.0556 120.4491 58° Northeast  Level Estimated
04:24PM 27.1254 120.5743 58° Northeast  Level Estimated
04:25PM 27.1951 120.6996 58° Northeast  Level Estimated
04:26PM 27.2647 120.8250 58° Northeast  Level Estimated
04:27PM 27.3342 120.9507 58° Northeast  Level Estimated
04:28PM 27.4035 121.0764 58° Northeast  Level Estimated
04:29PM 27.4728 121.2024 58° Northeast  Level Estimated
04:30PM 27.5419 121.3285 58° Northeast  Level Estimated
04:31PM 27.6109 121.4547 58° Northeast  Level Estimated
04:32PM 27.6798 121.5811 58° Northeast  Level Estimated
04:33PM 27.7486 121.7077 58° Northeast  Level Estimated
04:34PM 27.8173 121.8344 58° Northeast  Level Estimated
04:35PM 27.8858 121.9613 59° Northeast  Level Estimated
04:36PM 27.9543 122.0884 59° Northeast  Level Estimated
04:37PM 28.0226 122.2156 59° Northeast  Level Estimated
04:38PM 28.0908 122.3430 59° Northeast  Level Estimated
04:39PM 28.1589 122.4705 59° Northeast  Level Estimated
04:40PM 28.2269 122.5982 59° Northeast  Level Estimated
04:41PM 28.2947 122.7261 59° Northeast  Level Estimated
04:42PM 28.3625 122.8541 59° Northeast  Level Estimated
04:43PM 28.4301 122.9823 59° Northeast  Level Estimated
04:44PM 28.4976 123.1106 59° Northeast  Level Estimated
04:45PM 28.5649 123.2392 59° Northeast  Level Estimated
04:46PM 28.6322 123.3679 59° Northeast  Level Estimated
04:47PM 28.6993 123.4967 59° Northeast  Level Estimated
04:48PM 28.7663 123.6257 59° Northeast  Level Estimated
04:49PM 28.8332 123.7549 59° Northeast  Level Estimated
04:50PM 28.9000 123.8842 59° Northeast  Level Estimated
04:51PM 28.9666 124.0137 60° Northeast  Level Estimated
04:52PM 29.0331 124.1434 60° Northeast  Level Estimated
04:53PM 29.0995 124.2733 60° Northeast  Level Estimated
04:54PM 29.1658 124.4033 60° Northeast  Level Estimated
04:55PM 29.2319 124.5334 60° Northeast  Level Estimated
04:56PM 29.2979 124.6638 60° Northeast  Level Estimated
04:57PM 29.3638 124.7943 60° Northeast  Level Estimated
04:58PM 29.4296 124.9250 60° Northeast  Level Estimated
04:59PM 29.4952 125.0558 60° Northeast  Level Estimated
05:00PM 29.5607 125.1869 60° Northeast  Level Estimated
05:01PM 29.6261 125.3181 60° Northeast  Level Estimated
05:02PM 29.6913 125.4494 60° Northeast  Level Estimated
05:03PM 29.7564 125.5809 60° Northeast  Level Estimated
05:04PM 29.8214 125.7126 60° Northeast  Level Estimated
05:05PM 29.8863 125.8445 60° Northeast  Level Estimated
05:06PM 29.9510 125.9766 60° Northeast  Level Estimated
05:07PM 30.0156 126.1088 61° Northeast  Level Estimated
05:08PM 30.0800 126.2412 61° Northeast  Level Estimated
05:09PM 30.1444 126.3737 61° Northeast  Level Estimated
05:10PM 30.2085 126.5065 61° Northeast  Level Estimated
05:11PM 30.2726 126.6394 61° Northeast  Level Estimated
05:12PM 30.3365 126.7725 61° Northeast  Level Estimated
05:13PM 30.4003 126.9057 61° Northeast  Level Estimated
05:14PM 30.4640 127.0392 61° Northeast  Level Estimated
05:15PM 30.5275 127.1728 61° Northeast  Level Estimated
05:16PM 30.5909 127.3065 61° Northeast  Level Estimated
05:17PM 30.6541 127.4405 61° Northeast  Level Estimated
05:18PM 30.7172 127.5746 61° Northeast  Level Estimated
05:19PM 30.7802 127.7089 61° Northeast  Level Estimated
05:20PM 30.8430 127.8434 61° Northeast  Level Estimated
05:21PM 30.9057 127.9781 61° Northeast  Level Estimated
05:22PM 30.9683 128.1129 62° Northeast  Level Estimated
05:23PM 31.0307 128.2479 62° Northeast  Level Estimated
05:24PM 31.0929 128.3831 62° Northeast  Level Estimated
05:25PM 31.1551 128.5185 62° Northeast  Level Estimated
05:26PM 31.2171 128.6540 62° Northeast  Level Estimated
05:27PM 31.2789 128.7897 62° Northeast  Level Estimated
05:28PM 31.3406 128.9256 62° Northeast  Level Estimated
05:29PM 31.4022 129.0617 62° Northeast  Level Estimated
05:30PM 31.4636 129.1980 62° Northeast  Level Estimated
05:31PM 31.5249 129.3344 62° Northeast  Level Estimated
05:32PM 31.5860 129.4710 62° Northeast  Level Estimated
05:33PM 31.6470 129.6078 62° Northeast  Level Estimated
05:34PM 31.7078 129.7448 62° Northeast  Level Estimated
05:35PM 31.7685 129.8819 62° Northeast  Level Estimated
05:36PM 31.8290 130.0192 63° Northeast  Level Estimated
05:37PM 31.8894 130.1567 63° Northeast  Level Estimated
05:38PM 31.9497 130.2944 63° Northeast  Level Estimated
05:39PM 32.0098 130.4323 63° Northeast  Level Estimated
05:40PM 32.0697 130.5703 63° Northeast  Level Estimated
05:41PM 32.1295 130.7086 63° Northeast  Level Estimated
05:42PM 32.1892 130.8470 63° Northeast  Level Estimated
05:43PM 32.2486 130.9856 63° Northeast  Level Estimated
05:44PM 32.3080 131.1243 63° Northeast  Level Estimated
05:45PM 32.3672 131.2633 63° Northeast  Level Estimated
05:46PM 32.4262 131.4025 63° Northeast  Level Estimated
05:47PM 32.4851 131.5418 63° Northeast  Level Estimated
05:48PM 32.5438 131.6813 63° Northeast  Level Estimated
05:49PM 32.6024 131.8210 64° Northeast  Level Estimated
05:50PM 32.6608 131.9608 64° Northeast  Level Estimated
05:51PM 32.7191 132.1009 64° Northeast  Level Estimated
05:52PM 32.7772 132.2411 64° Northeast  Level Estimated
05:53PM 32.8352 132.3815 64° Northeast  Level Estimated
05:54PM 32.8930 132.5221 64° Northeast  Level Estimated
05:55PM 32.9506 132.6629 64° Northeast  Level Estimated
05:56PM 33.0081 132.8039 64° Northeast  Level Estimated
05:57PM 33.0654 132.9450 64° Northeast  Level Estimated
05:58PM 33.1226 133.0864 64° Northeast  Level Estimated
05:59PM 33.1796 133.2279 64° Northeast  Level Estimated
06:00PM 33.2364 133.3696 64° Northeast  Level Estimated
06:01PM 33.2931 133.5115 64° Northeast  Level Estimated
06:02PM 33.3496 133.6535 65° Northeast  Level Estimated
06:03PM 33.4060 133.7958 65° Northeast  Level Estimated
06:04PM 33.4622 133.9382 65° Northeast  Level Estimated
06:05PM 33.5182 134.0809 65° Northeast  Level Estimated
06:06PM 33.5741 134.2237 65° Northeast  Level Estimated
06:07PM 33.6298 134.3667 65° Northeast  Level Estimated
06:08PM 33.6853 134.5098 65° Northeast  Level Estimated
06:09PM 33.7407 134.6532 65° Northeast  Level Estimated
06:10PM 33.7959 134.7967 65° Northeast  Level Estimated
06:11PM 33.8510 134.9405 65° Northeast  Level Estimated
06:12PM 33.9059 135.0844 65° Northeast  Level Estimated
06:13PM 33.9606 135.2285 65° Northeast  Level Estimated
06:14PM 34.0151 135.3728 65° Northeast  Level Estimated
06:15PM 34.0695 135.5172 66° East  Level Estimated
06:16PM 34.1237 135.6619 66° East  Level Estimated
06:17PM 34.1777 135.8067 66° East  Level Estimated
06:18PM 34.2316 135.9518 66° East  Level Estimated
06:19PM 34.2853 136.0970 66° East  Level Estimated
06:20PM 34.3388 136.2424 66° East  Level Estimated
06:21PM 34.3921 136.3880 66° East  Level Estimated
06:22PM 34.4453 136.5337 66° East  Level Estimated
06:23PM 34.4983 136.6797 66° East  Level Estimated
06:24PM 34.5511 136.8258 66° East  Level Estimated
06:25PM 34.6038 136.9722 66° East  Level Estimated
06:26PM 34.6563 137.1187 66° East  Level Estimated
06:27PM 34.7086 137.2654 67° East  Level Estimated
06:28PM 34.7607 137.4123 67° East  Level Estimated
06:29PM 34.8127 137.5593 67° East  Level Estimated
06:30PM 34.8644 137.7066 67° East  Level Estimated
06:31PM 34.9160 137.8540 67° East  Level Estimated
06:32PM 34.9675 138.0016 67° East  Level Estimated
06:33PM 35.0187 138.1494 67° East  Level Estimated
06:34PM 35.0698 138.2974 67° East  Level Estimated
06:35PM 35.1207 138.4456 67° East  Level Estimated
06:36PM 35.1713 138.5940 67° East  Level Estimated
06:37PM 35.2219 138.7425 67° East  Level Estimated
06:38PM 35.2722 138.8913 67° East  Level Estimated
06:39PM 35.3224 139.0402 68° East  Level Estimated
06:40PM 35.3723 139.1893 68° East  Level Estimated
06:41PM 35.4221 139.3386 68° East  Level Estimated
06:42PM 35.4717 139.4880 68° East  Level Estimated
06:43PM 35.5212 139.6377 68° East  Level Estimated
06:44PM 35.5704 139.7875 68° East  Level Estimated
06:45PM 35.6194 139.9376 68° East  Level Estimated
06:46PM 35.6683 140.0878 68° East  Level Estimated
06:47PM 35.7170 140.2382 68° East  Level Estimated
06:48PM 35.7647 140.3864 68° East  Level Estimated
06:49PM 35.7647 140.3864 338° Northwest  Level Estimated
06:50PM 35.7647 140.3864 338° Northwest  Level Estimated
06:51PM 35.7647 140.3864 338° Northwest  Level Estimated
06:52PM 35.7647 140.3864 338° Northwest  Level Estimated
06:53PM 35.7647 140.3864 338° Northwest  Level Estimated
06:54PM 35.7647 140.3864 338° Northwest  Level Estimated
06:55PM 35.7647 140.3864 338° Northwest  Level Estimated
06:56PM 35.7647 140.3864 338° Northwest  Level Estimated
06:57PM 35.7647 140.3864 338° Northwest  Level Estimated
06:58PM 35.7647 140.3864 338° Northwest  Level Estimated
06:59PM 35.7647 140.3864 338° Northwest  Level Estimated
07:00PM 35.7647 140.3864 338° Northwest  Level Estimated
07:01PM 35.7647 140.3864 338° Northwest  Level Estimated
07:02PM 35.7647 140.3864 338° Northwest  Level Estimated
07:03PM 35.7647 140.3864 338° Northwest  Level Estimated
07:04PM 35.7647 140.3864 338° Northwest  Level Estimated